sensor_id;sensor_type;location;lat;lon;timestamp;pressure;altitude;pressure_sealevel;temperature;humidity
8697;BME280;4385;48.848;8.924;2023-04-19T00:00:58;97924.97;;;17.47;100.00
8697;BME280;4385;48.848;8.924;2023-04-19T00:03:25;97924.13;;;17.46;100.00
8697;BME280;4385;48.848;8.924;2023-04-19T00:05:51;97924.09;;;17.49;100.00
8697;BME280;4385;48.848;8.924;2023-04-19T00:08:18;97924.09;;;17.49;100.00
8697;BME280;4385;48.848;8.924;2023-04-19T00:10:43;97920.72;;;17.49;100.00
8697;BME280;4385;48.848;8.924;2023-04-19T00:13:08;97927.50;;;17.48;100.00
8697;BME280;4385;48.848;8.924;2023-04-19T00:15:34;97923.28;;;17.47;100.00
8697;BME280;4385;48.848;8.924;2023-04-19T00:17:59;97925.84;;;17.47;100.00
8697;BME280;4385;48.848;8.924;2023-04-19T00:20:25;97924.13;;;17.46;100.00
8697;BME280;4385;48.848;8.924;2023-04-19T00:22:51;97920.75;;;17.45;100.00
8697;BME280;4385;48.848;8.924;2023-04-19T00:25:16;97922.44;;;17.45;100.00
8697;BME280;4385;48.848;8.924;2023-04-19T00:27:41;97917.34;;;17.47;100.00
8697;BME280;4385;48.848;8.924;2023-04-19T00:30:07;97918.19;;;17.45;100.00
8697;BME280;4385;48.848;8.924;2023-04-19T00:32:32;97912.25;;;17.45;100.00
8697;BME280;4385;48.848;8.924;2023-04-19T00:34:58;97917.34;;;17.45;100.00
8697;BME280;4385;48.848;8.924;2023-04-19T00:37:23;97920.78;;;17.44;100.00
8697;BME280;4385;48.848;8.924;2023-04-19T00:39:48;97914.81;;;17.43;100.00
8697;BME280;4385;48.848;8.924;2023-04-19T00:42:14;97913.97;;;17.43;100.00
8697;BME280;4385;48.848;8.924;2023-04-19T00:44:39;97909.75;;;17.42;100.00
8697;BME280;4385;48.848;8.924;2023-04-19T00:47:04;97913.97;;;17.41;100.00
8697;BME280;4385;48.848;8.924;2023-04-19T00:49:30;97908.06;;;17.41;100.00
8697;BME280;4385;48.848;8.924;2023-04-19T00:51:55;97913.19;;;17.39;100.00
8697;BME280;4385;48.848;8.924;2023-04-19T00:54:21;97903.81;;;17.38;100.00
8697;BME280;4385;48.848;8.924;2023-04-19T00:56:47;97905.56;;;17.38;100.00
8697;BME280;4385;48.848;8.924;2023-04-19T00:59:13;97909.78;;;17.37;100.00
8697;BME280;4385;48.848;8.924;2023-04-19T01:01:39;97905.56;;;17.38;100.00
8697;BME280;4385;48.848;8.924;2023-04-19T01:04:06;97903.03;;;17.36;100.00
8697;BME280;4385;48.848;8.924;2023-04-19T01:06:32;97900.47;;;17.36;100.00
8697;BME280;4385;48.848;8.924;2023-04-19T01:08:58;97898.75;;;17.35;100.00
8697;BME280;4385;48.848;8.924;2023-04-19T01:11:24;97907.25;;;17.36;100.00
8697;BME280;4385;48.848;8.924;2023-04-19T01:13:49;97900.50;;;17.35;100.00
8697;BME280;4385;48.848;8.924;2023-04-19T01:16:15;97895.38;;;17.36;100.00
8697;BME280;4385;48.848;8.924;2023-04-19T01:18:40;97890.31;;;17.35;100.00
8697;BME280;4385;48.848;8.924;2023-04-19T01:21:06;97889.44;;;17.34;100.00
8697;BME280;4385;48.848;8.924;2023-04-19T01:23:32;97893.69;;;17.33;100.00
8697;BME280;4385;48.848;8.924;2023-04-19T01:25:57;97894.56;;;17.32;100.00
8697;BME280;4385;48.848;8.924;2023-04-19T01:28:22;97884.38;;;17.31;100.00
8697;BME280;4385;48.848;8.924;2023-04-19T01:30:47;97878.44;;;17.30;100.00
8697;BME280;4385;48.848;8.924;2023-04-19T01:33:15;97884.41;;;17.29;100.00
8697;BME280;4385;48.848;8.924;2023-04-19T01:35:41;97875.91;;;17.29;100.00
8697;BME280;4385;48.848;8.924;2023-04-19T01:38:06;97875.94;;;17.27;100.00
8697;BME280;4385;48.848;8.924;2023-04-19T01:40:31;97868.28;;;17.27;100.00
8697;BME280;4385;48.848;8.924;2023-04-19T01:42:57;97871.69;;;17.26;100.00
8697;BME280;4385;48.848;8.924;2023-04-19T01:45:22;97877.66;;;17.27;100.00
8697;BME280;4385;48.848;8.924;2023-04-19T01:47:47;97870.03;;;17.25;100.00
8697;BME280;4385;48.848;8.924;2023-04-19T01:50:12;97871.75;;;17.23;100.00
8697;BME280;4385;48.848;8.924;2023-04-19T01:52:38;97872.59;;;17.24;100.00
8697;BME280;4385;48.848;8.924;2023-04-19T01:55:03;97871.75;;;17.23;100.00
8697;BME280;4385;48.848;8.924;2023-04-19T01:57:28;97869.19;;;17.23;100.00
8697;BME280;4385;48.848;8.924;2023-04-19T01:59:54;97870.84;;;17.26;100.00
8697;BME280;4385;48.848;8.924;2023-04-19T02:02:20;97865.78;;;17.24;100.00
8697;BME280;4385;48.848;8.924;2023-04-19T02:04:45;97861.53;;;17.25;100.00
8697;BME280;4385;48.848;8.924;2023-04-19T02:07:10;97856.47;;;17.23;100.00
8697;BME280;4385;48.848;8.924;2023-04-19T02:09:36;97861.56;;;17.23;100.00
8697;BME280;4385;48.848;8.924;2023-04-19T02:12:03;97854.78;;;17.22;100.00
8697;BME280;4385;48.848;8.924;2023-04-19T02:14:29;97853.06;;;17.21;100.00
8697;BME280;4385;48.848;8.924;2023-04-19T02:16:54;97853.06;;;17.21;100.00
8697;BME280;4385;48.848;8.924;2023-04-19T02:19:19;97844.63;;;17.19;100.00
8697;BME280;4385;48.848;8.924;2023-04-19T02:21:45;97847.16;;;17.19;100.00
8697;BME280;4385;48.848;8.924;2023-04-19T02:24:10;97842.09;;;17.17;100.00
8697;BME280;4385;48.848;8.924;2023-04-19T02:26:35;97843.78;;;17.17;100.00
8697;BME280;4385;48.848;8.924;2023-04-19T02:29:01;97837.84;;;17.16;100.00
8697;BME280;4385;48.848;8.924;2023-04-19T02:31:26;97836.19;;;17.14;100.00
8697;BME280;4385;48.848;8.924;2023-04-19T02:33:52;97837.84;;;17.15;100.00
8697;BME280;4385;48.848;8.924;2023-04-19T02:36:17;97837.84;;;17.15;100.00
8697;BME280;4385;48.848;8.924;2023-04-19T02:38:42;97842.13;;;17.14;100.00
8697;BME280;4385;48.848;8.924;2023-04-19T02:41:07;97841.28;;;17.14;100.00
8697;BME280;4385;48.848;8.924;2023-04-19T02:43:33;97834.50;;;17.14;100.00
8697;BME280;4385;48.848;8.924;2023-04-19T02:45:58;97831.94;;;17.14;100.00
8697;BME280;4385;48.848;8.924;2023-04-19T02:48:23;97832.78;;;17.13;100.00
8697;BME280;4385;48.848;8.924;2023-04-19T02:50:49;97831.09;;;17.14;100.00
8697;BME280;4385;48.848;8.924;2023-04-19T02:53:14;97833.63;;;17.14;100.00
8697;BME280;4385;48.848;8.924;2023-04-19T02:55:39;97829.41;;;17.13;100.00
8697;BME280;4385;48.848;8.924;2023-04-19T02:58:05;97833.66;;;17.12;100.00
8697;BME280;4385;48.848;8.924;2023-04-19T03:00:30;97827.72;;;17.12;100.00
8697;BME280;4385;48.848;8.924;2023-04-19T03:02:55;97833.66;;;17.12;100.00
8697;BME280;4385;48.848;8.924;2023-04-19T03:05:22;97829.41;;;17.13;100.00
8697;BME280;4385;48.848;8.924;2023-04-19T03:07:47;97831.97;;;17.11;100.00
8697;BME280;4385;48.848;8.924;2023-04-19T03:10:12;97832.00;;;17.10;100.00
8697;BME280;4385;48.848;8.924;2023-04-19T03:12:38;97831.13;;;17.11;100.00
8697;BME280;4385;48.848;8.924;2023-04-19T03:15:04;97834.53;;;17.10;100.00
8697;BME280;4385;48.848;8.924;2023-04-19T03:17:29;97827.75;;;17.08;100.00
8697;BME280;4385;48.848;8.924;2023-04-19T03:19:54;97826.06;;;17.09;100.00
8697;BME280;4385;48.848;8.924;2023-04-19T03:22:20;97828.59;;;17.09;100.00
8697;BME280;4385;48.848;8.924;2023-04-19T03:24:45;97829.47;;;17.08;100.00
8697;BME280;4385;48.848;8.924;2023-04-19T03:27:11;97823.53;;;17.07;100.00
8697;BME280;4385;48.848;8.924;2023-04-19T03:29:36;97819.28;;;17.06;100.00
8697;BME280;4385;48.848;8.924;2023-04-19T03:32:01;97817.56;;;17.05;100.00
8697;BME280;4385;48.848;8.924;2023-04-19T03:34:27;97818.44;;;17.04;100.00
8697;BME280;4385;48.848;8.924;2023-04-19T03:36:52;97815.88;;;17.04;100.00
8697;BME280;4385;48.848;8.924;2023-04-19T03:39:17;97815.88;;;17.04;100.00
8697;BME280;4385;48.848;8.924;2023-04-19T03:41:42;97815.88;;;17.04;100.00
8697;BME280;4385;48.848;8.924;2023-04-19T03:44:08;97811.66;;;17.03;100.00
8697;BME280;4385;48.848;8.924;2023-04-19T03:46:36;97811.66;;;17.03;100.00
8697;BME280;4385;48.848;8.924;2023-04-19T03:49:01;97812.50;;;17.02;100.00
8697;BME280;4385;48.848;8.924;2023-04-19T03:51:27;97803.19;;;17.01;100.00
8697;BME280;4385;48.848;8.924;2023-04-19T03:53:52;97801.50;;;17.02;100.00
8697;BME280;4385;48.848;8.924;2023-04-19T03:56:17;97797.19;;;17.07;100.00
8697;BME280;4385;48.848;8.924;2023-04-19T03:58:42;97804.81;;;17.07;100.00
8697;BME280;4385;48.848;8.924;2023-04-19T04:01:16;97797.19;;;17.07;100.00
8697;BME280;4385;48.848;8.924;2023-04-19T04:03:42;97804.00;;;17.06;100.00
8697;BME280;4385;48.848;8.924;2023-04-19T04:06:07;97801.44;;;17.06;100.00
8697;BME280;4385;48.848;8.924;2023-04-19T04:08:32;97804.00;;;17.06;100.00
8697;BME280;4385;48.848;8.924;2023-04-19T04:10:57;97807.38;;;17.05;100.00
8697;BME280;4385;48.848;8.924;2023-04-19T04:13:23;97799.75;;;17.04;100.00
8697;BME280;4385;48.848;8.924;2023-04-19T04:15:48;97805.72;;;17.03;100.00
8697;BME280;4385;48.848;8.924;2023-04-19T04:18:13;97798.94;;;17.02;100.00
8697;BME280;4385;48.848;8.924;2023-04-19T04:20:39;97806.56;;;17.03;100.00
8697;BME280;4385;48.848;8.924;2023-04-19T04:23:05;97803.19;;;17.01;100.00
8697;BME280;4385;48.848;8.924;2023-04-19T04:25:31;97803.19;;;17.01;100.00
8697;BME280;4385;48.848;8.924;2023-04-19T04:27:57;97804.88;;;17.01;100.00
8697;BME280;4385;48.848;8.924;2023-04-19T04:30:22;97811.69;;;17.00;100.00
8697;BME280;4385;48.848;8.924;2023-04-19T04:32:47;97805.78;;;16.98;100.00
8697;BME280;4385;48.848;8.924;2023-04-19T04:35:15;97804.91;;;16.98;100.00
8697;BME280;4385;48.848;8.924;2023-04-19T04:37:41;97813.44;;;16.97;100.00
8697;BME280;4385;48.848;8.924;2023-04-19T04:40:07;97804.94;;;16.96;100.00
8697;BME280;4385;48.848;8.924;2023-04-19T04:42:33;97804.09;;;16.97;100.00
8697;BME280;4385;48.848;8.924;2023-04-19T04:44:58;97808.31;;;16.98;100.00
8697;BME280;4385;48.848;8.924;2023-04-19T04:47:29;97804.09;;;16.97;100.00
8697;BME280;4385;48.848;8.924;2023-04-19T04:49:55;97810.00;;;16.98;100.00
8697;BME280;4385;48.848;8.924;2023-04-19T04:52:20;97807.47;;;16.96;100.00
8697;BME280;4385;48.848;8.924;2023-04-19T04:54:46;97814.28;;;16.97;100.00
8697;BME280;4385;48.848;8.924;2023-04-19T04:57:11;97813.41;;;16.98;100.00
8697;BME280;4385;48.848;8.924;2023-04-19T04:59:36;97808.31;;;17.00;100.00
8697;BME280;4385;48.848;8.924;2023-04-19T05:02:01;97813.38;;;17.00;100.00
8697;BME280;4385;48.848;8.924;2023-04-19T05:04:27;97811.69;;;17.02;100.00
8697;BME280;4385;48.848;8.924;2023-04-19T05:06:52;97812.50;;;17.04;100.00
8697;BME280;4385;48.848;8.924;2023-04-19T05:09:17;97816.75;;;17.05;100.00
8697;BME280;4385;48.848;8.924;2023-04-19T05:11:43;97813.31;;;17.06;100.00
8697;BME280;4385;48.848;8.924;2023-04-19T05:14:08;97820.09;;;17.08;100.00
8697;BME280;4385;48.848;8.924;2023-04-19T05:16:33;97816.72;;;17.10;100.00
8697;BME280;4385;48.848;8.924;2023-04-19T05:18:58;97825.16;;;17.12;100.00
8697;BME280;4385;48.848;8.924;2023-04-19T05:21:24;97829.41;;;17.13;100.00
8697;BME280;4385;48.848;8.924;2023-04-19T05:23:49;97826.84;;;17.14;100.00
8697;BME280;4385;48.848;8.924;2023-04-19T05:26:17;97831.06;;;17.17;100.00
8697;BME280;4385;48.848;8.924;2023-04-19T05:28:43;97827.63;;;17.18;100.00
8697;BME280;4385;48.848;8.924;2023-04-19T05:31:10;97825.97;;;17.17;100.00
8697;BME280;4385;48.848;8.924;2023-04-19T05:33:35;97830.19;;;17.18;100.00
8697;BME280;4385;48.848;8.924;2023-04-19T05:36:00;97829.28;;;17.25;100.00
8697;BME280;4385;48.848;8.924;2023-04-19T05:38:26;97830.06;;;17.27;100.00
8697;BME280;4385;48.848;8.924;2023-04-19T05:40:51;97827.53;;;17.27;100.00
8697;BME280;4385;48.848;8.924;2023-04-19T05:43:16;97828.41;;;17.26;100.00
8697;BME280;4385;48.848;8.924;2023-04-19T05:45:42;97827.53;;;17.27;100.00
8697;BME280;4385;48.848;8.924;2023-04-19T05:48:07;97830.94;;;17.26;100.00
8697;BME280;4385;48.848;8.924;2023-04-19T05:50:32;97825.91;;;17.22;100.00
8697;BME280;4385;48.848;8.924;2023-04-19T05:52:58;97831.03;;;17.20;100.00
8697;BME280;4385;48.848;8.924;2023-04-19T05:55:24;97829.34;;;17.19;100.00
8697;BME280;4385;48.848;8.924;2023-04-19T05:57:49;97832.72;;;17.18;100.00
8697;BME280;4385;48.848;8.924;2023-04-19T06:00:15;97834.44;;;17.19;100.00
8697;BME280;4385;48.848;8.924;2023-04-19T06:02:40;97824.25;;;17.19;100.00
8697;BME280;4385;48.848;8.924;2023-04-19T06:05:06;97837.78;;;17.21;100.00
8697;BME280;4385;48.848;8.924;2023-04-19T06:07:31;97833.56;;;17.22;100.00
8697;BME280;4385;48.848;8.924;2023-04-19T06:09:56;97836.09;;;17.23;100.00
8697;BME280;4385;48.848;8.924;2023-04-19T06:12:22;97842.00;;;17.25;100.00
8697;BME280;4385;48.848;8.924;2023-04-19T06:14:47;97830.94;;;17.26;100.00
8697;BME280;4385;48.848;8.924;2023-04-19T06:17:12;97830.94;;;17.28;100.00
8697;BME280;4385;48.848;8.924;2023-04-19T06:19:38;97831.78;;;17.30;100.00
8697;BME280;4385;48.848;8.924;2023-04-19T06:22:03;97832.59;;;17.30;100.00
8697;BME280;4385;48.848;8.924;2023-04-19T06:24:29;97822.41;;;17.30;100.00
8697;BME280;4385;48.848;8.924;2023-04-19T06:26:55;97831.78;;;17.28;100.00
8697;BME280;4385;48.848;8.924;2023-04-19T06:29:21;97830.06;;;17.27;100.00
8697;BME280;4385;48.848;8.924;2023-04-19T06:31:47;97827.56;;;17.26;100.00
8697;BME280;4385;48.848;8.924;2023-04-19T06:34:13;97826.75;;;17.24;100.00
8697;BME280;4385;48.848;8.924;2023-04-19T06:36:38;97828.44;;;17.23;100.00
8697;BME280;4385;48.848;8.924;2023-04-19T06:39:03;97833.56;;;17.22;100.00
8697;BME280;4385;48.848;8.924;2023-04-19T06:41:29;97824.22;;;17.22;100.00
8697;BME280;4385;48.848;8.924;2023-04-19T06:43:55;97825.03;;;17.24;100.00
8697;BME280;4385;48.848;8.924;2023-04-19T06:46:20;97830.97;;;17.25;100.00
8697;BME280;4385;48.848;8.924;2023-04-19T06:48:45;97833.53;;;17.25;100.00
8697;BME280;4385;48.848;8.924;2023-04-19T06:51:10;97830.94;;;17.26;100.00
8697;BME280;4385;48.848;8.924;2023-04-19T06:53:36;97824.94;;;17.30;100.00
8697;BME280;4385;48.848;8.924;2023-04-19T06:56:03;97829.97;;;17.37;100.00
8697;BME280;4385;48.848;8.924;2023-04-19T06:58:29;97831.63;;;17.41;100.00
8697;BME280;4385;48.848;8.924;2023-04-19T07:00:56;97816.28;;;17.47;100.00
8697;BME280;4385;48.848;8.924;2023-04-19T07:03:21;97822.13;;;17.52;100.00
8697;BME280;4385;48.848;8.924;2023-04-19T07:05:46;97822.06;;;17.58;100.00
8697;BME280;4385;48.848;8.924;2023-04-19T07:08:12;97825.38;;;17.64;100.00
8697;BME280;4385;48.848;8.924;2023-04-19T07:10:37;97826.97;;;17.71;100.00
8697;BME280;4385;48.848;8.924;2023-04-19T07:13:02;97828.66;;;17.75;100.00
8697;BME280;4385;48.848;8.924;2023-04-19T07:15:28;97827.72;;;17.79;100.00
8697;BME280;4385;48.848;8.924;2023-04-19T07:17:53;97837.00;;;17.83;100.00
8697;BME280;4385;48.848;8.924;2023-04-19T07:20:19;97830.16;;;17.87;100.00
8697;BME280;4385;48.848;8.924;2023-04-19T07:22:44;97825.88;;;17.91;100.00
8697;BME280;4385;48.848;8.924;2023-04-19T07:25:10;97818.22;;;17.92;100.00
8697;BME280;4385;48.848;8.924;2023-04-19T07:27:35;97818.19;;;17.94;100.00
8697;BME280;4385;48.848;8.924;2023-04-19T07:30:00;97821.53;;;17.96;100.00
8697;BME280;4385;48.848;8.924;2023-04-19T07:32:25;97813.03;;;17.97;100.00
8697;BME280;4385;48.848;8.924;2023-04-19T07:34:51;97813.81;;;18.01;100.00
8697;BME280;4385;48.848;8.924;2023-04-19T07:37:17;97807.88;;;18.02;100.00
8697;BME280;4385;48.848;8.924;2023-04-19T07:39:42;97812.00;;;18.09;100.00
8697;BME280;4385;48.848;8.924;2023-04-19T07:42:07;97806.03;;;18.12;100.00
8697;BME280;4385;48.848;8.924;2023-04-19T07:44:32;97810.28;;;18.13;100.00
8697;BME280;4385;48.848;8.924;2023-04-19T07:46:58;97806.00;;;18.13;100.00
8697;BME280;4385;48.848;8.924;2023-04-19T07:49:23;97811.09;;;18.15;100.00
8697;BME280;4385;48.848;8.924;2023-04-19T07:51:49;97803.44;;;18.15;100.00
8697;BME280;4385;48.848;8.924;2023-04-19T07:54:14;97807.69;;;18.16;100.00
8697;BME280;4385;48.848;8.924;2023-04-19T07:56:44;97803.34;;;18.19;100.00
8697;BME280;4385;48.848;8.924;2023-04-19T07:59:09;97795.69;;;18.21;100.00
8697;BME280;4385;48.848;8.924;2023-04-19T08:01:35;97788.84;;;18.23;100.00
8697;BME280;4385;48.848;8.924;2023-04-19T08:04:01;97789.69;;;18.25;100.00
8697;BME280;4385;48.848;8.924;2023-04-19T08:06:26;97787.06;;;18.28;100.00
8697;BME280;4385;48.848;8.924;2023-04-19T08:08:51;97786.19;;;18.29;100.00
8697;BME280;4385;48.848;8.924;2023-04-19T08:11:17;97783.59;;;18.32;100.00
8697;BME280;4385;48.848;8.924;2023-04-19T08:13:42;97779.31;;;18.35;100.00
8697;BME280;4385;48.848;8.924;2023-04-19T08:16:07;97775.91;;;18.36;100.00
8697;BME280;4385;48.848;8.924;2023-04-19T08:18:33;97776.72;;;18.38;100.00
8697;BME280;4385;48.848;8.924;2023-04-19T08:20:59;97785.16;;;18.40;100.00
8697;BME280;4385;48.848;8.924;2023-04-19T08:23:25;97780.91;;;18.40;100.00
8697;BME280;4385;48.848;8.924;2023-04-19T08:25:50;97778.34;;;18.42;100.00
8697;BME280;4385;48.848;8.924;2023-04-19T08:28:16;97784.28;;;18.42;100.00
8697;BME280;4385;48.848;8.924;2023-04-19T08:30:42;97783.44;;;18.42;100.00
8697;BME280;4385;48.848;8.924;2023-04-19T08:33:07;97782.56;;;18.43;100.00
8697;BME280;4385;48.848;8.924;2023-04-19T08:35:42;97786.78;;;18.46;100.00
8697;BME280;4385;48.848;8.924;2023-04-19T08:38:07;97785.06;;;18.46;100.00
8697;BME280;4385;48.848;8.924;2023-04-19T08:40:33;97791.00;;;18.48;100.00
8697;BME280;4385;48.848;8.924;2023-04-19T08:42:59;97787.59;;;18.48;100.00
8697;BME280;4385;48.848;8.924;2023-04-19T08:45:29;97776.53;;;18.49;100.00
8697;BME280;4385;48.848;8.924;2023-04-19T08:47:56;97785.00;;;18.49;100.00
8697;BME280;4385;48.848;8.924;2023-04-19T08:50:22;97778.19;;;18.51;100.00
8697;BME280;4385;48.848;8.924;2023-04-19T08:52:48;97779.81;;;18.54;100.00
8697;BME280;4385;48.848;8.924;2023-04-19T08:55:14;97778.13;;;18.54;100.00
8697;BME280;4385;48.848;8.924;2023-04-19T08:57:40;97780.66;;;18.56;100.00
8697;BME280;4385;48.848;8.924;2023-04-19T09:00:05;97778.09;;;18.56;100.00
8697;BME280;4385;48.848;8.924;2023-04-19T09:03:06;97779.75;;;18.57;100.00
8697;BME280;4385;48.848;8.924;2023-04-19T09:05:31;97774.63;;;18.59;100.00
8697;BME280;4385;48.848;8.924;2023-04-19T09:08:49;97761.88;;;18.59;100.00
8697;BME280;4385;48.848;8.924;2023-04-19T09:11:08;97764.44;;;18.59;100.00
8697;BME280;4385;48.848;8.924;2023-04-19T09:13:33;97771.28;;;18.56;100.00
8697;BME280;4385;48.848;8.924;2023-04-19T09:16:02;97765.28;;;18.59;100.00
8697;BME280;4385;48.848;8.924;2023-04-19T09:18:28;97767.81;;;18.61;100.00
8697;BME280;4385;48.848;8.924;2023-04-19T09:20:54;97766.91;;;18.62;100.00
8697;BME280;4385;48.848;8.924;2023-04-19T09:23:24;97760.13;;;18.62;100.00
8697;BME280;4385;48.848;8.924;2023-04-19T09:26:00;97766.88;;;18.65;100.00
8697;BME280;4385;48.848;8.924;2023-04-19T09:28:29;97757.53;;;18.64;100.00
8697;BME280;4385;48.848;8.924;2023-04-19T09:30:54;97761.72;;;18.66;100.00
8697;BME280;4385;48.848;8.924;2023-04-19T09:33:37;97757.47;;;18.67;100.00
8697;BME280;4385;48.848;8.924;2023-04-19T09:36:06;97753.22;;;18.67;100.00
8697;BME280;4385;48.848;8.924;2023-04-19T09:38:48;97753.25;;;18.66;100.00
8697;BME280;4385;48.848;8.924;2023-04-19T09:41:14;97749.00;;;18.65;100.00
8697;BME280;4385;48.848;8.924;2023-04-19T09:43:41;97744.72;;;18.67;100.00
8697;BME280;4385;48.848;8.924;2023-04-19T09:46:06;97741.28;;;18.68;100.00
8697;BME280;4385;48.848;8.924;2023-04-19T09:48:31;97735.31;;;18.69;100.00
8697;BME280;4385;48.848;8.924;2023-04-19T09:50:59;97740.44;;;18.69;100.00
8697;BME280;4385;48.848;8.924;2023-04-19T09:53:25;97737.84;;;18.71;100.00
8697;BME280;4385;48.848;8.924;2023-04-19T09:55:51;97738.66;;;18.71;100.00
8697;BME280;4385;48.848;8.924;2023-04-19T09:58:18;97735.28;;;18.72;100.00
8697;BME280;4385;48.848;8.924;2023-04-19T10:00:44;97731.84;;;18.73;100.00
8697;BME280;4385;48.848;8.924;2023-04-19T10:03:12;97728.41;;;18.74;100.00
8697;BME280;4385;48.848;8.924;2023-04-19T10:05:39;97725.84;;;18.74;100.00
8697;BME280;4385;48.848;8.924;2023-04-19T10:08:10;97726.66;;;18.76;100.00
8697;BME280;4385;48.848;8.924;2023-04-19T10:10:35;97729.19;;;18.78;100.00
8697;BME280;4385;48.848;8.924;2023-04-19T10:13:03;97726.66;;;18.76;100.00
8697;BME280;4385;48.848;8.924;2023-04-19T10:15:30;97728.31;;;18.79;100.00
8697;BME280;4385;48.848;8.924;2023-04-19T10:17:56;97726.59;;;18.79;100.00
8697;BME280;4385;48.848;8.924;2023-04-19T10:23:10;97708.66;;;18.84;100.00
8697;BME280;4385;48.848;8.924;2023-04-19T10:25:36;97701.84;;;18.85;100.00
8697;BME280;4385;48.848;8.924;2023-04-19T10:28:01;97707.72;;;18.87;100.00
8697;BME280;4385;48.848;8.924;2023-04-19T10:30:27;97705.16;;;18.88;100.00
8697;BME280;4385;48.848;8.924;2023-04-19T10:32:57;97705.09;;;18.91;100.00
8697;BME280;4385;48.848;8.924;2023-04-19T10:35:26;97702.53;;;18.91;100.00
8697;BME280;4385;48.848;8.924;2023-04-19T10:38:10;97701.72;;;18.91;100.00
8697;BME280;4385;48.848;8.924;2023-04-19T10:43:19;97697.44;;;18.90;100.00
8697;BME280;4385;48.848;8.924;2023-04-19T10:45:46;97689.81;;;18.88;100.00
8697;BME280;4385;48.848;8.924;2023-04-19T10:48:29;97689.84;;;18.87;100.00
8697;BME280;4385;48.848;8.924;2023-04-19T10:56:09;97678.78;;;18.88;100.00
8697;BME280;4385;48.848;8.924;2023-04-19T11:01:35;97676.09;;;18.94;100.00
8697;BME280;4385;48.848;8.924;2023-04-19T11:07:01;97668.38;;;18.97;100.00
8697;BME280;4385;48.848;8.924;2023-04-19T11:09:35;97665.78;;;18.99;100.00
8697;BME280;4385;48.848;8.924;2023-04-19T11:12:10;97672.59;;;18.98;100.00
8697;BME280;4385;48.848;8.924;2023-04-19T11:17:14;97673.41;;;19.02;100.00
8697;BME280;4385;48.848;8.924;2023-04-19T11:20:05;97664.88;;;19.01;100.00
8697;BME280;4385;48.848;8.924;2023-04-19T11:22:39;97669.09;;;19.02;100.00
8697;BME280;4385;48.848;8.924;2023-04-19T11:25:09;97663.16;;;19.03;100.00
8697;BME280;4385;48.848;8.924;2023-04-19T11:27:36;97663.16;;;19.03;100.00
8697;BME280;4385;48.848;8.924;2023-04-19T11:30:15;97651.16;;;19.05;100.00
8697;BME280;4385;48.848;8.924;2023-04-19T11:32:45;97656.31;;;19.04;100.00
8697;BME280;4385;48.848;8.924;2023-04-19T11:35:11;97650.38;;;19.03;100.00
8697;BME280;4385;48.848;8.924;2023-04-19T11:37:37;97663.16;;;19.03;100.00
8697;BME280;4385;48.848;8.924;2023-04-19T11:40:04;97655.47;;;19.03;100.00
8697;BME280;4385;48.848;8.924;2023-04-19T11:42:30;97653.75;;;19.04;100.00
8697;BME280;4385;48.848;8.924;2023-04-19T11:44:56;97642.72;;;19.03;100.00
8697;BME280;4385;48.848;8.924;2023-04-19T11:47:27;97640.16;;;19.03;100.00
8697;BME280;4385;48.848;8.924;2023-04-19T11:49:54;97648.63;;;19.04;100.00
8697;BME280;4385;48.848;8.924;2023-04-19T11:52:21;97643.50;;;19.05;100.00
8697;BME280;4385;48.848;8.924;2023-04-19T11:54:47;97642.66;;;19.06;100.00
8697;BME280;4385;48.848;8.924;2023-04-19T11:57:12;97640.91;;;19.09;100.00
8697;BME280;4385;48.848;8.924;2023-04-19T11:59:38;97640.06;;;19.10;100.00
8697;BME280;4385;48.848;8.924;2023-04-19T12:02:10;97638.31;;;19.10;100.00
8697;BME280;4385;48.848;8.924;2023-04-19T12:04:36;97645.09;;;19.13;100.00
8697;BME280;4385;48.848;8.924;2023-04-19T12:07:04;97641.66;;;19.14;100.00
8697;BME280;4385;48.848;8.924;2023-04-19T12:09:32;97643.28;;;19.16;100.00
8697;BME280;4385;48.848;8.924;2023-04-19T12:11:57;97637.28;;;19.19;100.00
8697;BME280;4385;48.848;8.924;2023-04-19T12:14:22;97643.19;;;19.21;100.00
8697;BME280;4385;48.848;8.924;2023-04-19T12:19:46;97637.97;;;19.26;100.00
8697;BME280;4385;48.848;8.924;2023-04-19T12:22:16;97639.72;;;19.25;100.00
8697;BME280;4385;48.848;8.924;2023-04-19T12:24:44;97637.91;;;19.29;100.00
8697;BME280;4385;48.848;8.924;2023-04-19T12:27:11;97638.75;;;19.29;100.00
8697;BME280;4385;48.848;8.924;2023-04-19T12:29:37;97627.66;;;19.30;100.00
8697;BME280;4385;48.848;8.924;2023-04-19T12:32:03;97630.13;;;19.34;100.00
8697;BME280;4385;48.848;8.924;2023-04-19T12:34:28;97634.38;;;19.35;100.00
8697;BME280;4385;48.848;8.924;2023-04-19T12:36:54;97630.13;;;19.34;100.00
8697;BME280;4385;48.848;8.924;2023-04-19T12:39:20;97630.13;;;19.34;100.00
8697;BME280;4385;48.848;8.924;2023-04-19T12:41:45;97635.22;;;19.34;100.00
8697;BME280;4385;48.848;8.924;2023-04-19T12:44:13;97635.22;;;19.34;100.00
8697;BME280;4385;48.848;8.924;2023-04-19T12:46:38;97634.41;;;19.33;100.00
8697;BME280;4385;48.848;8.924;2023-04-19T12:49:03;97629.31;;;19.33;100.00
8697;BME280;4385;48.848;8.924;2023-04-19T12:51:29;97632.59;;;19.37;100.00
8697;BME280;4385;48.848;8.924;2023-04-19T12:53:54;97631.75;;;19.38;100.00
8697;BME280;4385;48.848;8.924;2023-04-19T12:56:19;97627.44;;;19.40;100.00
8697;BME280;4385;48.848;8.924;2023-04-19T12:58:45;97620.56;;;19.42;100.00
8697;BME280;4385;48.848;8.924;2023-04-19T13:01:10;97626.53;;;19.42;100.00
8697;BME280;4385;48.848;8.924;2023-04-19T13:03:36;97627.31;;;19.44;100.00
8697;BME280;4385;48.848;8.924;2023-04-19T13:06:02;97627.28;;;19.46;100.00
8697;BME280;4385;48.848;8.924;2023-04-19T13:08:27;97617.91;;;19.47;100.00
8697;BME280;4385;48.848;8.924;2023-04-19T13:10:54;97614.44;;;19.49;100.00
8697;BME280;4385;48.848;8.924;2023-04-19T13:13:19;97616.13;;;19.50;100.00
8697;BME280;4385;48.848;8.924;2023-04-19T13:15:45;97603.34;;;19.50;100.00
8697;BME280;4385;48.848;8.924;2023-04-19T13:18:10;97605.00;;;19.51;100.00
8697;BME280;4385;48.848;8.924;2023-04-19T13:20:35;97599.88;;;19.53;100.00
8697;BME280;4385;48.848;8.924;2023-04-19T13:23:00;97600.72;;;19.53;100.00
8697;BME280;4385;48.848;8.924;2023-04-19T13:25:26;97594.72;;;19.54;100.00
8697;BME280;4385;48.848;8.924;2023-04-19T13:27:51;97597.28;;;19.54;100.00